sensor_id;sensor_type;location;lat;lon;timestamp;pressure;altitude;pressure_sealevel;temperature;humidity
5126;BME280;63008;53.112;8.896;2023-02-11T00:00:23;103020.97;;;7.07;82.93
5126;BME280;63008;53.112;8.896;2023-02-11T00:02:24;103010.56;;;7.04;83.04
5126;BME280;63008;53.112;8.896;2023-02-11T00:04:29;103022.09;;;7.11;82.78
5126;BME280;63008;53.112;8.896;2023-02-11T00:06:31;103008.06;;;7.02;83.12
5126;BME280;63008;53.112;8.896;2023-02-11T00:08:32;103000.16;;;7.01;83.21
5126;BME280;63008;53.112;8.896;2023-02-11T00:10:33;103006.50;;;7.06;82.97
5126;BME280;63008;53.112;8.896;2023-02-11T00:12:35;103013.59;;;7.07;82.93
5126;BME280;63008;53.112;8.896;2023-02-11T00:14:36;103017.78;;;7.15;82.55
5126;BME280;63008;53.112;8.896;2023-02-11T00:16:37;103010.69;;;7.14;82.70
5126;BME280;63008;53.112;8.896;2023-02-11T00:18:38;103007.06;;;7.08;82.93
5126;BME280;63008;53.112;8.896;2023-02-11T00:20:39;103007.06;;;7.08;82.87
5126;BME280;63008;53.112;8.896;2023-02-11T00:22:41;103001.09;;;7.11;82.89
5126;BME280;63008;53.112;8.896;2023-02-11T00:24:42;102997.28;;;7.12;82.70
5126;BME280;63008;53.112;8.896;2023-02-11T00:26:43;103001.97;;;7.17;82.66
5126;BME280;63008;53.112;8.896;2023-02-11T00:28:46;102993.47;;;7.13;82.79
5126;BME280;63008;53.112;8.896;2023-02-11T00:30:53;102985.31;;;7.18;82.48
5126;BME280;63008;53.112;8.896;2023-02-11T00:32:54;102994.59;;;7.17;82.74
5126;BME280;63008;53.112;8.896;2023-02-11T00:34:55;102989.13;;;7.17;82.60
5126;BME280;63008;53.112;8.896;2023-02-11T00:36:56;102996.53;;;7.17;82.61
5126;BME280;63008;53.112;8.896;2023-02-11T00:38:58;102991.44;;;7.25;82.46
5126;BME280;63008;53.112;8.896;2023-02-11T00:40:59;102971.41;;;7.19;82.60
5126;BME280;63008;53.112;8.896;2023-02-11T00:43:00;102968.41;;;7.21;82.46
5126;BME280;63008;53.112;8.896;2023-02-11T00:45:02;102953.13;;;7.20;82.60
5126;BME280;63008;53.112;8.896;2023-02-11T00:47:04;102952.63;;;7.23;82.40
5126;BME280;63008;53.112;8.896;2023-02-11T00:49:05;102943.34;;;7.24;82.47
5126;BME280;63008;53.112;8.896;2023-02-11T00:51:06;102938.66;;;7.19;82.70
5126;BME280;63008;53.112;8.896;2023-02-11T00:53:07;102950.16;;;7.21;82.51
5126;BME280;63008;53.112;8.896;2023-02-11T00:55:08;102947.97;;;7.23;82.48
5126;BME280;63008;53.112;8.896;2023-02-11T00:57:09;102931.78;;;7.17;82.74
5126;BME280;63008;53.112;8.896;2023-02-11T00:59:10;102943.06;;;7.25;82.50
5126;BME280;63008;53.112;8.896;2023-02-11T01:01:12;102949.38;;;7.26;82.42
5126;BME280;63008;53.112;8.896;2023-02-11T01:03:13;102932.69;;;7.22;82.68
5126;BME280;63008;53.112;8.896;2023-02-11T01:05:14;102939.25;;;7.26;82.46
5126;BME280;63008;53.112;8.896;2023-02-11T01:07:15;102943.59;;;7.22;82.55
5126;BME280;63008;53.112;8.896;2023-02-11T01:09:16;102953.97;;;7.20;82.78
5126;BME280;63008;53.112;8.896;2023-02-11T01:11:19;102948.53;;;7.25;82.63
5126;BME280;63008;53.112;8.896;2023-02-11T01:13:21;102950.47;;;7.25;82.74
5126;BME280;63008;53.112;8.896;2023-02-11T01:15:22;102964.63;;;7.22;82.91
5126;BME280;63008;53.112;8.896;2023-02-11T01:17:23;102968.19;;;7.22;82.95
5126;BME280;63008;53.112;8.896;2023-02-11T01:19:24;102958.91;;;7.23;82.95
5126;BME280;63008;53.112;8.896;2023-02-11T01:21:25;102960.31;;;7.26;82.88
5126;BME280;63008;53.112;8.896;2023-02-11T01:23:26;102959.25;;;7.32;82.72
5126;BME280;63008;53.112;8.896;2023-02-11T01:25:27;102960.03;;;7.27;82.82
5126;BME280;63008;53.112;8.896;2023-02-11T01:27:28;102960.53;;;7.24;83.14
5126;BME280;63008;53.112;8.896;2023-02-11T01:29:29;102960.53;;;7.24;83.15
5126;BME280;63008;53.112;8.896;2023-02-11T01:31:30;102953.75;;;7.27;83.33
5126;BME280;63008;53.112;8.896;2023-02-11T01:33:31;102958.34;;;7.21;83.57
5126;BME280;63008;53.112;8.896;2023-02-11T01:35:32;102955.59;;;7.21;83.57
5126;BME280;63008;53.112;8.896;2023-02-11T01:37:34;102950.72;;;7.23;83.74
5126;BME280;63008;53.112;8.896;2023-02-11T01:39:35;102962.19;;;7.25;83.63
5126;BME280;63008;53.112;8.896;2023-02-11T01:41:36;102958.13;;;7.28;83.56
5126;BME280;63008;53.112;8.896;2023-02-11T01:43:41;102949.38;;;7.26;83.54
5126;BME280;63008;53.112;8.896;2023-02-11T01:47:46;102937.91;;;7.24;83.63
5126;BME280;63008;53.112;8.896;2023-02-11T01:49:50;102952.09;;;7.26;83.48
5126;BME280;63008;53.112;8.896;2023-02-11T01:51:57;102952.91;;;7.26;83.68
5126;BME280;63008;53.112;8.896;2023-02-11T01:54:01;102945.00;;;7.25;83.73
5126;BME280;63008;53.112;8.896;2023-02-11T01:56:22;102948.81;;;7.24;83.83
5126;BME280;63008;53.112;8.896;2023-02-11T01:58:44;102944.47;;;7.28;83.63
5126;BME280;63008;53.112;8.896;2023-02-11T02:00:47;102946.38;;;7.27;83.69
5126;BME280;63008;53.112;8.896;2023-02-11T02:02:59;102948.84;;;7.29;83.80
5126;BME280;63008;53.112;8.896;2023-02-11T02:05:09;102945.84;;;7.30;83.47
5126;BME280;63008;53.112;8.896;2023-02-11T02:07:21;102950.56;;;7.35;83.46
5126;BME280;63008;53.112;8.896;2023-02-11T02:09:28;102930.91;;;7.38;83.19
5126;BME280;63008;53.112;8.896;2023-02-11T02:11:31;102923.50;;;7.33;83.43
5126;BME280;63008;53.112;8.896;2023-02-11T02:13:34;102924.31;;;7.34;83.37
5126;BME280;63008;53.112;8.896;2023-02-11T02:15:37;102916.69;;;7.36;83.49
5126;BME280;63008;53.112;8.896;2023-02-11T02:20:15;102906.63;;;7.41;83.33
5126;BME280;63008;53.112;8.896;2023-02-11T02:23:04;102897.03;;;7.39;83.63
5126;BME280;63008;53.112;8.896;2023-02-11T02:25:22;102896.25;;;7.38;83.54
5126;BME280;63008;53.112;8.896;2023-02-11T02:37:16;102893.59;;;7.48;83.37
5126;BME280;63008;53.112;8.896;2023-02-11T02:39:21;102889.78;;;7.49;83.16
5126;BME280;63008;53.112;8.896;2023-02-11T02:41:27;102885.91;;;7.45;83.48
5126;BME280;63008;53.112;8.896;2023-02-11T02:43:30;102882.69;;;7.48;83.32
5126;BME280;63008;53.112;8.896;2023-02-11T02:45:31;102880.50;;;7.50;83.28
5126;BME280;63008;53.112;8.896;2023-02-11T02:47:32;102891.38;;;7.45;83.45
5126;BME280;63008;53.112;8.896;2023-02-11T02:49:33;102883.19;;;7.45;83.64
5126;BME280;63008;53.112;8.896;2023-02-11T02:56:11;102871.47;;;7.50;83.35
5126;BME280;63008;53.112;8.896;2023-02-11T03:00:59;102867.94;;;7.49;83.39
5126;BME280;63008;53.112;8.896;2023-02-11T03:04:00;102864.06;;;7.45;83.81
5126;BME280;63008;53.112;8.896;2023-02-11T03:06:17;102873.13;;;7.51;83.75
5126;BME280;63008;53.112;8.896;2023-02-11T03:08:29;102866.53;;;7.47;83.58
5126;BME280;63008;53.112;8.896;2023-02-11T03:10:35;102867.09;;;7.49;83.62
5126;BME280;63008;53.112;8.896;2023-02-11T03:12:38;102860.84;;;7.53;83.67
5126;BME280;63008;53.112;8.896;2023-02-11T03:14:40;102860.84;;;7.53;83.71
5126;BME280;63008;53.112;8.896;2023-02-11T03:16:42;102866.28;;;7.48;83.68
5126;BME280;63008;53.112;8.896;2023-02-11T03:18:49;102864.41;;;7.54;83.60
5126;BME280;63008;53.112;8.896;2023-02-11T03:20:52;102862.19;;;7.51;83.78
5126;BME280;63008;53.112;8.896;2023-02-11T03:23:06;102854.00;;;7.51;83.76
5126;BME280;63008;53.112;8.896;2023-02-11T03:25:10;102862.50;;;7.54;83.76
5126;BME280;63008;53.112;8.896;2023-02-11T03:27:20;102858.94;;;7.54;83.82
5126;BME280;63008;53.112;8.896;2023-02-11T03:29:34;102848.28;;;7.52;83.81
5126;BME280;63008;53.112;8.896;2023-02-11T03:32:06;102859.78;;;7.54;83.94
5126;BME280;63008;53.112;8.896;2023-02-11T03:34:22;102862.84;;;7.63;83.65
5126;BME280;63008;53.112;8.896;2023-02-11T03:36:47;102864.72;;;7.57;83.67
5126;BME280;63008;53.112;8.896;2023-02-11T03:38:54;102857.28;;;7.53;84.16
5126;BME280;63008;53.112;8.896;2023-02-11T03:40:57;102867.13;;;7.54;84.21
5126;BME280;63008;53.112;8.896;2023-02-11T03:43:02;102858.69;;;7.55;84.40
5126;BME280;63008;53.112;8.896;2023-02-11T03:45:08;102854.88;;;7.56;84.08
5126;BME280;63008;53.112;8.896;2023-02-11T03:47:12;102857.84;;;7.55;84.25
5126;BME280;63008;53.112;8.896;2023-02-11T03:49:17;102853.47;;;7.54;84.44
5126;BME280;63008;53.112;8.896;2023-02-11T03:51:21;102850.50;;;7.55;84.48
5126;BME280;63008;53.112;8.896;2023-02-11T03:53:23;102842.00;;;7.57;84.48
5126;BME280;63008;53.112;8.896;2023-02-11T03:55:24;102853.25;;;7.60;84.36
5126;BME280;63008;53.112;8.896;2023-02-11T03:57:27;102865.56;;;7.63;84.31
5126;BME280;63008;53.112;8.896;2023-02-11T03:59:28;102853.28;;;7.65;84.35
5126;BME280;63008;53.112;8.896;2023-02-11T04:01:29;102857.09;;;7.64;84.33
5126;BME280;63008;53.112;8.896;2023-02-11T04:03:30;102860.66;;;7.65;84.46
5126;BME280;63008;53.112;8.896;2023-02-11T04:05:32;102856.00;;;7.65;84.48
5126;BME280;63008;53.112;8.896;2023-02-11T04:07:33;102857.09;;;7.64;84.61
5126;BME280;63008;53.112;8.896;2023-02-11T04:09:34;102863.97;;;7.67;84.55
5126;BME280;63008;53.112;8.896;2023-02-11T04:11:36;102859.31;;;7.67;84.60
5126;BME280;63008;53.112;8.896;2023-02-11T04:13:37;102865.34;;;7.69;84.57
5126;BME280;63008;53.112;8.896;2023-02-11T04:15:38;102860.13;;;7.68;84.66
5126;BME280;63008;53.112;8.896;2023-02-11T04:17:39;102857.41;;;7.68;84.70
5126;BME280;63008;53.112;8.896;2023-02-11T04:19:40;102869.41;;;7.67;85.01
5126;BME280;63008;53.112;8.896;2023-02-11T04:21:41;102861.78;;;7.69;84.88
5126;BME280;63008;53.112;8.896;2023-02-11T04:23:42;102869.19;;;7.73;84.82
5126;BME280;63008;53.112;8.896;2023-02-11T04:25:43;102866.16;;;7.70;84.98
5126;BME280;63008;53.112;8.896;2023-02-11T04:27:44;102866.22;;;7.75;84.65
5126;BME280;63008;53.112;8.896;2023-02-11T04:29:45;102868.94;;;7.75;84.70
5126;BME280;63008;53.112;8.896;2023-02-11T04:31:46;102858.53;;;7.72;84.92
5126;BME280;63008;53.112;8.896;2023-02-11T04:33:47;102855.28;;;7.75;84.84
5126;BME280;63008;53.112;8.896;2023-02-11T04:35:48;102852.50;;;7.70;85.18
5126;BME280;63008;53.112;8.896;2023-02-11T04:37:49;102860.16;;;7.73;85.15
5126;BME280;63008;53.112;8.896;2023-02-11T04:39:50;102857.47;;;7.78;85.07
5126;BME280;63008;53.112;8.896;2023-02-11T04:41:51;102853.59;;;7.74;85.43
5126;BME280;63008;53.112;8.896;2023-02-11T04:43:52;102858.81;;;7.70;85.51
5126;BME280;63008;53.112;8.896;2023-02-11T04:45:56;102868.34;;;7.73;85.39
5126;BME280;63008;53.112;8.896;2023-02-11T04:47:58;102852.28;;;7.81;85.20
5126;BME280;63008;53.112;8.896;2023-02-11T04:49:59;102862.97;;;7.83;85.05
5126;BME280;63008;53.112;8.896;2023-02-11T04:52:00;102865.94;;;7.76;85.40
5126;BME280;63008;53.112;8.896;2023-02-11T04:54:01;102862.13;;;7.82;85.46
5126;BME280;63008;53.112;8.896;2023-02-11T04:56:02;102862.97;;;7.83;85.28
5126;BME280;63008;53.112;8.896;2023-02-11T04:58:03;102854.47;;;7.79;85.56
5126;BME280;63008;53.112;8.896;2023-02-11T05:00:05;102858.84;;;7.80;85.45
5126;BME280;63008;53.112;8.896;2023-02-11T05:02:07;102861.03;;;7.78;85.73
5126;BME280;63008;53.112;8.896;2023-02-11T05:04:08;102848.44;;;7.77;85.85
5126;BME280;63008;53.112;8.896;2023-02-11T05:06:09;102850.66;;;7.80;85.89
5126;BME280;63008;53.112;8.896;2023-02-11T05:08:11;102854.47;;;7.79;85.97
5126;BME280;63008;53.112;8.896;2023-02-11T05:10:12;102840.56;;;7.81;85.92
5126;BME280;63008;53.112;8.896;2023-02-11T05:12:13;102835.09;;;7.86;85.79
5126;BME280;63008;53.112;8.896;2023-02-11T05:14:14;102841.09;;;7.83;85.87
5126;BME280;63008;53.112;8.896;2023-02-11T05:16:16;102836.19;;;7.85;85.73
5126;BME280;63008;53.112;8.896;2023-02-11T05:18:17;102844.38;;;7.80;85.89
5126;BME280;63008;53.112;8.896;2023-02-11T05:20:18;102826.59;;;7.77;86.22
5126;BME280;63008;53.112;8.896;2023-02-11T05:22:19;102840.25;;;7.77;86.33
5126;BME280;63008;53.112;8.896;2023-02-11T05:24:21;102838.13;;;7.84;85.96
5126;BME280;63008;53.112;8.896;2023-02-11T05:26:22;102840.56;;;7.86;86.14
5126;BME280;63008;53.112;8.896;2023-02-11T05:28:23;102855.59;;;7.83;86.32
5126;BME280;63008;53.112;8.896;2023-02-11T05:30:24;102858.06;;;7.85;86.25
5126;BME280;63008;53.112;8.896;2023-02-11T05:32:25;102861.88;;;7.84;86.30
5126;BME280;63008;53.112;8.896;2023-02-11T05:34:26;102856.97;;;7.86;86.35
5126;BME280;63008;53.112;8.896;2023-02-11T05:36:27;102865.72;;;7.88;86.20
5126;BME280;63008;53.112;8.896;2023-02-11T05:38:28;102867.34;;;7.84;86.44
5126;BME280;63008;53.112;8.896;2023-02-11T05:40:29;102860.00;;;7.89;86.17
5126;BME280;63008;53.112;8.896;2023-02-11T05:42:30;102863.53;;;7.85;86.41
5126;BME280;63008;53.112;8.896;2023-02-11T05:44:31;102854.25;;;7.86;86.68
5126;BME280;63008;53.112;8.896;2023-02-11T05:46:32;102859.16;;;7.84;86.63
5126;BME280;63008;53.112;8.896;2023-02-11T05:48:33;102856.66;;;7.82;86.99
5126;BME280;63008;53.112;8.896;2023-02-11T05:50:34;102849.31;;;7.83;87.27
5126;BME280;63008;53.112;8.896;2023-02-11T05:52:35;102854.47;;;7.79;87.33
5126;BME280;63008;53.112;8.896;2023-02-11T05:54:36;102848.75;;;7.81;87.42
5126;BME280;63008;53.112;8.896;2023-02-11T05:56:37;102845.19;;;7.80;87.51
5126;BME280;63008;53.112;8.896;2023-02-11T05:58:38;102852.81;;;7.78;87.97
5126;BME280;63008;53.112;8.896;2023-02-11T06:00:39;102846.28;;;7.79;88.15
5126;BME280;63008;53.112;8.896;2023-02-11T06:02:40;102854.47;;;7.79;88.27
5126;BME280;63008;53.112;8.896;2023-02-11T06:04:41;102858.03;;;7.80;88.57
5126;BME280;63008;53.112;8.896;2023-02-11T06:06:42;102859.94;;;7.79;88.62
5126;BME280;63008;53.112;8.896;2023-02-11T06:08:43;102857.47;;;7.78;88.66
5126;BME280;63008;53.112;8.896;2023-02-11T06:10:44;102848.72;;;7.76;89.09
5126;BME280;63008;53.112;8.896;2023-02-11T06:12:48;102852.56;;;7.75;89.13
5126;BME280;63008;53.112;8.896;2023-02-11T06:14:49;102848.41;;;7.72;89.49
5126;BME280;63008;53.112;8.896;2023-02-11T06:16:50;102847.91;;;7.80;89.43
5126;BME280;63008;53.112;8.896;2023-02-11T06:18:50;102846.00;;;7.76;89.56
5126;BME280;63008;53.112;8.896;2023-02-11T06:20:51;102842.97;;;7.72;89.78
5126;BME280;63008;53.112;8.896;2023-02-11T06:22:52;102857.81;;;7.86;89.53
5126;BME280;63008;53.112;8.896;2023-02-11T06:24:53;102858.28;;;7.78;89.69
5126;BME280;63008;53.112;8.896;2023-02-11T06:26:54;102857.72;;;7.71;90.27
5126;BME280;63008;53.112;8.896;2023-02-11T06:28:58;102866.22;;;7.75;90.55
5126;BME280;63008;53.112;8.896;2023-02-11T06:31:04;102855.00;;;7.76;90.56
5126;BME280;63008;53.112;8.896;2023-02-11T06:33:06;102849.81;;;7.75;90.69
5126;BME280;63008;53.112;8.896;2023-02-11T06:35:07;102847.34;;;7.73;91.00
5126;BME280;63008;53.112;8.896;2023-02-11T06:37:08;102854.97;;;7.71;91.47
5126;BME280;63008;53.112;8.896;2023-02-11T06:39:10;102844.28;;;7.70;91.70
5126;BME280;63008;53.112;8.896;2023-02-11T06:41:16;102853.34;;;7.75;91.56
5126;BME280;63008;53.112;8.896;2023-02-11T06:43:19;102859.06;;;7.74;91.68
5126;BME280;63008;53.112;8.896;2023-02-11T06:45:20;102856.06;;;7.70;92.22
5126;BME280;63008;53.112;8.896;2023-02-11T06:47:21;102857.97;;;7.70;92.32
5126;BME280;63008;53.112;8.896;2023-02-11T06:49:22;102855.78;;;7.72;92.38
5126;BME280;63008;53.112;8.896;2023-02-11T06:51:23;102867.88;;;7.76;92.38
5126;BME280;63008;53.112;8.896;2023-02-11T06:53:24;102860.22;;;7.78;92.57
5126;BME280;63008;53.112;8.896;2023-02-11T06:55:26;102853.59;;;7.74;93.05
5126;BME280;63008;53.112;8.896;2023-02-11T06:57:28;102861.25;;;7.72;93.28
5126;BME280;63008;53.112;8.896;2023-02-11T06:59:29;102849.75;;;7.70;93.46
5126;BME280;63008;53.112;8.896;2023-02-11T07:01:30;102852.25;;;7.71;93.52
5126;BME280;63008;53.112;8.896;2023-02-11T07:03:33;102858.53;;;7.72;93.84
5126;BME280;63008;53.112;8.896;2023-02-11T07:05:35;102848.41;;;7.72;93.83
5126;BME280;63008;53.112;8.896;2023-02-11T07:07:38;102860.97;;;7.68;94.06
5126;BME280;63008;53.112;8.896;2023-02-11T07:09:39;102854.13;;;7.71;94.18
5126;BME280;63008;53.112;8.896;2023-02-11T07:11:40;102850.31;;;7.72;94.07
5126;BME280;63008;53.112;8.896;2023-02-11T07:13:42;102850.31;;;7.72;94.07
5126;BME280;63008;53.112;8.896;2023-02-11T07:15:43;102859.59;;;7.71;94.04
5126;BME280;63008;53.112;8.896;2023-02-11T07:17:44;102856.06;;;7.70;94.09
5126;BME280;63008;53.112;8.896;2023-02-11T07:19:45;102862.09;;;7.72;94.10
5126;BME280;63008;53.112;8.896;2023-02-11T07:21:46;102859.94;;;7.79;94.03
5126;BME280;63008;53.112;8.896;2023-02-11T07:23:48;102856.94;;;7.76;93.97
5126;BME280;63008;53.112;8.896;2023-02-11T07:25:49;102871.69;;;7.75;94.08
5126;BME280;63008;53.112;8.896;2023-02-11T07:27:50;102868.44;;;7.83;93.75
5126;BME280;63008;53.112;8.896;2023-02-11T07:29:51;102878.84;;;7.86;93.56
5126;BME280;63008;53.112;8.896;2023-02-11T07:31:52;102885.16;;;7.91;93.48
5126;BME280;63008;53.112;8.896;2023-02-11T07:33:55;102893.34;;;7.86;93.50
5126;BME280;63008;53.112;8.896;2023-02-11T07:35:59;102893.38;;;7.91;93.47
5126;BME280;63008;53.112;8.896;2023-02-11T07:38:00;102899.44;;;7.98;93.39
5126;BME280;63008;53.112;8.896;2023-02-11T07:40:01;102894.28;;;8.07;93.20
5126;BME280;63008;53.112;8.896;2023-02-11T07:42:02;102903.03;;;8.09;92.53
5126;BME280;63008;53.112;8.896;2023-02-11T07:44:04;102906.06;;;8.07;92.69
5126;BME280;63008;53.112;8.896;2023-02-11T07:46:07;102910.69;;;8.07;92.74
5126;BME280;63008;53.112;8.896;2023-02-11T07:48:09;102898.97;;;8.11;92.70
5126;BME280;63008;53.112;8.896;2023-02-11T07:50:10;102902.78;;;8.10;92.61
5126;BME280;63008;53.112;8.896;2023-02-11T07:52:17;102908.78;;;8.07;92.85
5126;BME280;63008;53.112;8.896;2023-02-11T07:54:21;102918.41;;;8.15;92.73
5126;BME280;63008;53.112;8.896;2023-02-11T07:56:22;102914.03;;;8.14;93.12
5126;BME280;63008;53.112;8.896;2023-02-11T07:58:27;102911.31;;;8.14;92.99
5126;BME280;63008;53.112;8.896;2023-02-11T08:00:28;102910.22;;;8.15;93.06
5126;BME280;63008;53.112;8.896;2023-02-11T08:02:29;102908.03;;;8.17;93.21
5126;BME280;63008;53.112;8.896;2023-02-11T08:04:30;102900.72;;;8.22;93.09
5126;BME280;63008;53.112;8.896;2023-02-11T08:06:33;102904.53;;;8.21;93.11
5126;BME280;63008;53.112;8.896;2023-02-11T08:08:34;102917.94;;;8.23;93.02
5126;BME280;63008;53.112;8.896;2023-02-11T08:10:36;102917.38;;;8.21;92.95
5126;BME280;63008;53.112;8.896;2023-02-11T08:12:37;102916.59;;;8.25;93.01
5126;BME280;63008;53.112;8.896;2023-02-11T08:14:38;102921.78;;;8.27;92.92
5126;BME280;63008;53.112;8.896;2023-02-11T08:16:39;102920.19;;;8.31;92.89
5126;BME280;63008;53.112;8.896;2023-02-11T08:18:40;102927.84;;;8.29;93.04
5126;BME280;63008;53.112;8.896;2023-02-11T08:20:41;102933.03;;;8.30;93.27
5126;BME280;63008;53.112;8.896;2023-02-11T08:22:42;102932.16;;;8.25;93.73
5126;BME280;63008;53.112;8.896;2023-02-11T08:24:46;102935.19;;;8.28;93.61
5126;BME280;63008;53.112;8.896;2023-02-11T08:26:47;102946.16;;;8.33;93.52
5126;BME280;63008;53.112;8.896;2023-02-11T08:28:50;102945.91;;;8.35;93.40
5126;BME280;63008;53.112;8.896;2023-02-11T08:30:51;102949.19;;;8.32;93.55
5126;BME280;63008;53.112;8.896;2023-02-11T08:32:52;102958.50;;;8.36;93.64
5126;BME280;63008;53.112;8.896;2023-02-11T08:34:53;102956.56;;;8.36;94.03
5126;BME280;63008;53.112;8.896;2023-02-11T08:36:54;102964.78;;;8.36;93.77
5126;BME280;63008;53.112;8.896;2023-02-11T08:38:57;102964.84;;;8.41;93.78
5126;BME280;63008;53.112;8.896;2023-02-11T08:40:59;102963.19;;;8.40;93.73
5126;BME280;63008;53.112;8.896;2023-02-11T08:43:00;102971.13;;;8.42;93.59
5126;BME280;63008;53.112;8.896;2023-02-11T08:45:01;102968.13;;;8.43;93.28
5126;BME280;63008;53.112;8.896;2023-02-11T08:47:04;102968.66;;;8.40;93.73
5126;BME280;63008;53.112;8.896;2023-02-11T08:49:05;102970.00;;;8.38;93.89
5126;BME280;63008;53.112;8.896;2023-02-11T08:51:09;102972.19;;;8.36;93.87
5126;BME280;63008;53.112;8.896;2023-02-11T08:53:11;102965.06;;;8.35;94.20
5126;BME280;63008;53.112;8.896;2023-02-11T08:55:12;102976.31;;;8.38;94.15
5126;BME280;63008;53.112;8.896;2023-02-11T08:57:13;102969.22;;;8.42;93.92
5126;BME280;63008;53.112;8.896;2023-02-11T08:59:14;102969.22;;;8.47;93.80
5126;BME280;63008;53.112;8.896;2023-02-11T09:01:20;102981.25;;;8.41;94.29
5126;BME280;63008;53.112;8.896;2023-02-11T09:03:21;102976.59;;;8.42;94.25
5126;BME280;63008;53.112;8.896;2023-02-11T09:05:22;102981.81;;;8.43;94.29
5126;BME280;63008;53.112;8.896;2023-02-11T09:07:23;102971.41;;;8.40;94.25
5126;BME280;63008;53.112;8.896;2023-02-11T09:09:24;102975.16;;;8.34;94.66
5126;BME280;63008;53.112;8.896;2023-02-11T09:11:31;102974.94;;;8.41;94.35
5126;BME280;63008;53.112;8.896;2023-02-11T09:13:32;102981.81;;;8.48;94.20
5126;BME280;63008;53.112;8.896;2023-02-11T09:15:34;102983.19;;;8.46;94.26
5126;BME280;63008;53.112;8.896;2023-02-11T09:17:35;102982.91;;;8.42;94.38
5126;BME280;63008;53.112;8.896;2023-02-11T09:19:36;102995.50;;;8.43;94.46
5126;BME280;63008;53.112;8.896;2023-02-11T09:21:37;102988.38;;;8.47;94.59
5126;BME280;63008;53.112;8.896;2023-02-11T09:23:38;103000.69;;;8.45;94.47
5126;BME280;63008;53.112;8.896;2023-02-11T09:25:41;103000.97;;;8.43;94.58
5126;BME280;63008;53.112;8.896;2023-02-11T09:27:42;103005.91;;;8.46;94.54
5126;BME280;63008;53.112;8.896;2023-02-11T09:29:43;103005.59;;;8.43;94.92
5126;BME280;63008;53.112;8.896;2023-02-11T09:31:44;103005.59;;;8.43;94.92
5126;BME280;63008;53.112;8.896;2023-02-11T09:33:47;103017.63;;;8.42;95.04
5126;BME280;63008;53.112;8.896;2023-02-11T09:35:48;103019.81;;;8.40;95.33
5126;BME280;63008;53.112;8.896;2023-02-11T09:37:49;103015.72;;;8.42;95.38
5126;BME280;63008;53.112;8.896;2023-02-11T09:39:50;103025.84;;;8.42;95.46
5126;BME280;63008;53.112;8.896;2023-02-11T09:44:24;103007.78;;;8.41;95.85
5126;BME280;63008;53.112;8.896;2023-02-11T09:46:30;103017.63;;;8.42;95.54
5126;BME280;63008;53.112;8.896;2023-02-11T09:48:38;103022.31;;;8.46;95.74
5126;BME280;63008;53.112;8.896;2023-02-11T09:50:47;103019.31;;;8.48;95.60
5126;BME280;63008;53.112;8.896;2023-02-11T09:52:52;103042.88;;;8.49;95.61
5126;BME280;63008;53.112;8.896;2023-02-11T09:55:04;103027.47;;;8.43;95.68
5126;BME280;63008;53.112;8.896;2023-02-11T09:57:08;103040.13;;;8.49;95.51
5126;BME280;63008;53.112;8.896;2023-02-11T09:59:14;103031.63;;;8.45;95.49
5126;BME280;63008;53.112;8.896;2023-02-11T10:01:29;103028.91;;;8.50;95.32
5126;BME280;63008;53.112;8.896;2023-02-11T10:06:08;103031.63;;;8.50;95.34
5126;BME280;63008;53.112;8.896;2023-02-11T10:08:19;103025.63;;;8.53;95.61
5126;BME280;63008;53.112;8.896;2023-02-11T10:10:34;103023.19;;;8.57;95.24
5126;BME280;63008;53.112;8.896;2023-02-11T10:15:23;103033.59;;;8.60;95.16
5126;BME280;63008;53.112;8.896;2023-02-11T10:17:59;103030.31;;;8.58;95.46
5126;BME280;63008;53.112;8.896;2023-02-11T10:20:33;103030.28;;;8.53;95.60
5126;BME280;63008;53.112;8.896;2023-02-11T10:22:43;103012.78;;;8.54;95.73
5126;BME280;63008;53.112;8.896;2023-02-11T10:24:56;103026.22;;;8.55;95.67
5126;BME280;63008;53.112;8.896;2023-02-11T10:26:58;103034.13;;;8.52;95.85
5126;BME280;63008;53.112;8.896;2023-02-11T10:29:02;103040.94;;;8.49;96.32
5126;BME280;63008;53.112;8.896;2023-02-11T10:31:33;103040.06;;;8.44;96.59
5126;BME280;63008;53.112;8.896;2023-02-11T10:33:50;103053.53;;;8.50;96.87
5126;BME280;63008;53.112;8.896;2023-02-11T10:35:53;103063.16;;;8.58;96.95
5126;BME280;63008;53.112;8.896;2023-02-11T10:37:54;103068.34;;;8.54;96.56
5126;BME280;63008;53.112;8.896;2023-02-11T10:39:55;103069.47;;;8.58;96.75
5126;BME280;63008;53.112;8.896;2023-02-11T10:42:04;103060.97;;;8.55;96.46
5126;BME280;63008;53.112;8.896;2023-02-11T10:44:07;103056.03;;;8.57;96.94
5126;BME280;63008;53.112;8.896;2023-02-11T10:46:21;103048.16;;;8.65;96.19
5126;BME280;63008;53.112;8.896;2023-02-11T10:48:40;103048.13;;;8.60;96.32
5126;BME280;63008;53.112;8.896;2023-02-11T10:50:42;103049.22;;;8.59;96.40
5126;BME280;63008;53.112;8.896;2023-02-11T10:52:43;103051.41;;;8.57;96.51
5126;BME280;63008;53.112;8.896;2023-02-11T10:55:08;103068.59;;;8.53;96.45
5126;BME280;63008;53.112;8.896;2023-02-11T10:57:17;103070.03;;;8.60;96.64
5126;BME280;63008;53.112;8.896;2023-02-11T10:59:30;103066.44;;;8.60;96.46
5126;BME280;63008;53.112;8.896;2023-02-11T11:01:41;103068.72;;;8.68;96.22
5126;BME280;63008;53.112;8.896;2023-02-11T11:03:49;103064.13;;;8.78;96.00
5126;BME280;63008;53.112;8.896;2023-02-11T11:05:56;103061.69;;;8.82;95.13
5126;BME280;63008;53.112;8.896;2023-02-11T11:08:00;103068.28;;;8.86;95.03
5126;BME280;63008;53.112;8.896;2023-02-11T11:10:23;103065.53;;;8.86;94.73
5126;BME280;63008;53.112;8.896;2023-02-11T11:12:46;103065.56;;;8.91;93.84
5126;BME280;63008;53.112;8.896;2023-02-11T11:14:53;103063.94;;;8.95;93.91
5126;BME280;63008;53.112;8.896;2023-02-11T11:16:55;103074.63;;;8.91;93.97
5126;BME280;63008;53.112;8.896;2023-02-11T11:21:12;103074.88;;;8.90;93.29
5126;BME280;63008;53.112;8.896;2023-02-11T11:23:20;103079.47;;;8.84;93.67
5126;BME280;63008;53.112;8.896;2023-02-11T11:25:27;103089.09;;;8.92;93.91
5126;BME280;63008;53.112;8.896;2023-02-11T11:27:29;103091.88;;;8.97;93.62
5126;BME280;63008;53.112;8.896;2023-02-11T11:29:35;103083.94;;;8.95;93.62
5126;BME280;63008;53.112;8.896;2023-02-11T11:31:50;103096.78;;;8.95;93.17
5126;BME280;63008;53.112;8.896;2023-02-11T11:33:53;103100.09;;;8.97;92.92
5126;BME280;63008;53.112;8.896;2023-02-11T11:38:03;103102.25;;;8.90;93.38